Time;durP1;ratioP1;P1;durP2;ratioP2;P2;SDS_P1;SDS_P2;PMS_P1;PMS_P2;Temp;Humidity;BMP_temperature;BMP_pressure;BME280_temperature;BME280_humidity;BME280_pressure;Samples;Min_cycle;Max_cycle;Signal;HPM_P1;HPM_P2
2024/03/25 00:04:12;;;;;;;13.80;3.25;;;;;;;7.97;80.16;98701.09;6069583;23;20053;-89
2024/03/25 00:10:26;;;;;;;14.88;3.83;;;;;;;7.94;80.27;98710.84;6069551;23;20021;-89
2024/03/25 00:16:39;;;;;;;16.95;3.53;;;;;;;7.95;80.35;98715.16;6069257;23;20022;-89
2024/03/25 00:26:32;;;;;;;11.05;3.03;;;;;;;7.97;80.41;98716.81;6069349;23;20021;-89
2024/03/25 00:32:45;;;;;;;15.90;3.22;;;;;;;7.95;80.21;98724.78;6069358;23;20025;-89
2024/03/25 07:11:48;;;;;;;16.50;3.00;;;;;;;7.46;80.50;98907.56;6058871;23;20350;-90
2024/03/25 07:14:13;;;;;;;20.35;4.65;;;;;;;7.57;83.11;98906.94;6015509;23;20024;-90
2024/03/25 07:16:54;;;;;;;15.68;4.53;;;;;;;7.62;81.41;98907.50;6039274;23;20023;-90
2024/03/25 07:19:20;;;;;;;11.10;3.60;;;;;;;7.74;83.37;98903.31;6015564;23;20035;-90
2024/03/25 07:21:45;;;;;;;17.83;4.38;;;;;;;7.82;82.96;98898.47;6015550;23;20027;-90
2024/03/25 07:27:19;;;;;;;12.18;3.20;;;;;;;8.03;82.94;98902.50;6039249;23;20020;-89
2024/03/25 07:29:45;;;;;;;15.85;3.42;;;;;;;8.11;82.55;98909.91;6015705;23;20078;-88
2024/03/25 07:32:31;;;;;;;13.85;3.20;;;;;;;8.14;80.25;98913.19;6015763;23;20023;-90
2024/03/25 07:34:57;;;;;;;17.42;3.58;;;;;;;8.25;81.91;98911.69;6039428;23;20026;-91
2024/03/25 07:37:23;;;;;;;16.85;3.30;;;;;;;8.29;81.92;98908.78;6015685;23;20027;-90
2024/03/25 07:40:05;;;;;;;18.13;3.78;;;;;;;8.31;79.26;98912.19;6015336;23;20174;-90
2024/03/25 07:42:31;;;;;;;8.15;2.50;;;;;;;8.40;81.25;98902.03;6038780;23;20095;-90
2024/03/25 07:45:10;;;;;;;19.63;4.30;;;;;;;8.41;79.17;98901.94;6015635;23;20031;-91
2024/03/25 07:47:36;;;;;;;13.45;3.42;;;;;;;8.50;81.79;98907.56;6015027;23;20031;-90
2024/03/25 07:50:02;;;;;;;15.05;3.53;;;;;;;8.57;82.50;98906.28;6015372;23;20462;-91
2024/03/25 07:52:40;;;;;;;18.67;4.00;;;;;;;8.60;79.81;98908.72;6015318;23;20023;-90
2024/03/25 07:55:07;;;;;;;19.00;4.50;;;;;;;8.69;82.30;98918.63;6015167;23;20027;-90
2024/03/25 07:57:33;;;;;;;15.45;4.28;;;;;;;8.75;82.06;98914.78;6015222;23;20027;-90
2024/03/25 08:00:26;;;;;;;18.83;3.88;;;;;;;8.78;78.94;98917.19;6015140;23;20477;-89
2024/03/25 08:02:51;;;;;;;14.88;3.00;;;;;;;8.90;81.62;98922.63;6015283;23;20027;-89
2024/03/25 08:05:25;;;;;;;10.88;3.08;;;;;;;8.92;79.60;98929.44;6014861;23;20030;-90
2024/03/25 08:07:51;;;;;;;19.65;4.63;;;;;;;8.98;80.72;98926.41;6015035;23;20030;-89
2024/03/25 08:10:16;;;;;;;15.70;3.58;;;;;;;9.02;79.72;98929.72;6038555;23;20023;-89
2024/03/25 08:12:43;;;;;;;13.52;3.10;;;;;;;9.03;79.58;98931.38;6017585;23;20074;-89
2024/03/25 08:15:09;;;;;;;14.38;3.47;;;;;;;9.02;78.99;98924.47;6019597;23;20027;-89
2024/03/25 08:17:35;;;;;;;15.05;3.60;;;;;;;9.01;79.36;98919.31;6019699;23;20457;-89
2024/03/25 08:20:02;;;;;;;16.48;4.20;;;;;;;8.99;79.57;98920.25;6019653;23;20065;-89
2024/03/25 08:22:28;;;;;;;17.58;3.40;;;;;;;9.01;79.81;98927.19;6043228;23;20033;-89
2024/03/25 08:25:17;;;;;;;11.70;3.25;;;;;;;9.04;78.49;98932.25;6043173;23;20022;-89
2024/03/25 08:27:43;;;;;;;18.02;3.78;;;;;;;9.14;81.26;98930.69;6019670;23;20031;-89
2024/03/25 08:30:10;;;;;;;16.17;3.17;;;;;;;9.21;81.32;98932.00;6043055;23;20023;-89
2024/03/25 08:32:36;;;;;;;13.73;3.40;;;;;;;9.30;81.40;98934.97;6019718;23;20026;-88
2024/03/25 08:35:02;;;;;;;14.02;3.78;;;;;;;9.39;81.30;98942.25;6019233;23;20027;-89
2024/03/25 08:37:28;;;;;;;19.00;3.95;;;;;;;9.43;78.96;98943.72;6042997;23;20026;-89
2024/03/25 08:39:53;;;;;;;16.88;3.70;;;;;;;9.47;78.93;98936.47;6019388;23;20071;-89
2024/03/25 08:42:26;;;;;;;14.20;3.53;;;;;;;9.46;74.93;98947.94;6043040;23;20070;-89
2024/03/25 08:44:52;;;;;;;12.85;3.42;;;;;;;9.49;78.48;98931.94;6042621;23;20027;-89
2024/03/25 08:47:17;;;;;;;11.68;3.00;;;;;;;9.49;78.92;98932.81;6042922;23;20033;-89
2024/03/25 08:49:55;;;;;;;11.40;3.30;;;;;;;9.50;77.23;98931.84;6043076;23;20031;-89
2024/03/25 08:52:21;;;;;;;13.02;3.30;;;;;;;9.61;80.95;98932.94;6019490;23;20022;-89
2024/03/25 08:54:46;;;;;;;14.70;3.70;;;;;;;9.69;80.65;98935.91;6042764;23;20027;-89
2024/03/25 08:57:13;;;;;;;13.15;2.92;;;;;;;9.78;81.03;98934.44;6019147;23;20034;-89
2024/03/25 08:59:39;;;;;;;10.55;2.80;;;;;;;9.90;80.93;98943.28;6018907;23;20023;-89
2024/03/25 09:02:06;;;;;;;13.60;3.03;;;;;;;9.98;79.33;98943.59;6019160;23;20488;-89
2024/03/25 09:04:32;;;;;;;15.73;3.08;;;;;;;10.06;79.12;98939.63;6018999;23;20027;-89
2024/03/25 09:06:58;;;;;;;12.77;3.00;;;;;;;10.13;79.82;98940.91;6042910;23;20078;-89
2024/03/25 09:12:26;;;;;;;12.60;3.08;;;;;;;10.29;79.60;98938.06;6042770;23;20019;-89
2024/03/25 09:14:52;;;;;;;12.40;3.10;;;;;;;10.35;79.60;98929.72;6042693;23;20025;-89
2024/03/25 09:17:55;;;;;;;9.75;2.60;;;;;;;10.38;75.36;98933.91;6042439;23;20027;-89
2024/03/25 09:20:26;;;;;;;12.90;3.63;;;;;;;10.48;76.56;98936.78;6019007;23;20018;-89
2024/03/25 09:22:52;;;;;;;7.57;3.15;;;;;;;10.54;79.66;98942.47;6019132;23;20485;-89
2024/03/25 09:25:18;;;;;;;13.82;3.45;;;;;;;10.62;79.51;98941.09;6018881;23;20046;-89
2024/03/25 09:28:08;;;;;;;16.50;3.75;;;;;;;10.65;76.21;98936.44;6018931;23;20351;-90
2024/03/25 09:30:33;;;;;;;15.65;4.20;;;;;;;10.79;79.85;98935.47;6018750;23;20070;-89
2024/03/25 09:32:59;;;;;;;16.77;4.10;;;;;;;10.87;79.94;98939.38;6018839;23;20354;-89
2024/03/25 09:36:02;;;;;;;10.05;3.78;;;;;;;10.90;75.10;98925.94;6042510;23;20034;-89
2024/03/25 09:38:27;;;;;;;12.60;3.70;;;;;;;11.03;79.42;98931.19;6042540;23;20023;-90
2024/03/25 09:40:56;;;;;;;11.98;3.42;;;;;;;11.11;79.42;98930.63;6018917;23;20033;-89
2024/03/25 09:43:47;;;;;;;18.55;3.85;;;;;;;11.16;74.11;98936.41;6018709;23;20472;-89
2024/03/25 09:46:13;;;;;;;9.00;2.80;;;;;;;11.29;80.04;98937.19;6018836;23;20046;-89
2024/03/25 09:49:05;;;;;;;12.70;4.00;;;;;;;11.37;74.62;98935.78;6018769;23;20101;-89
2024/03/25 09:51:31;;;;;;;14.68;3.67;;;;;;;11.51;78.03;98935.59;6018623;23;20019;-89
2024/03/25 09:53:59;;;;;;;9.48;2.42;;;;;;;11.58;76.21;98935.97;6042323;23;20078;-89
2024/03/25 09:56:25;;;;;;;12.02;3.10;;;;;;;11.65;76.64;98934.56;6018746;23;20034;-90
2024/03/25 09:59:01;;;;;;;11.48;3.33;;;;;;;11.67;72.43;98943.19;6018810;23;20031;-89
2024/03/25 10:01:27;;;;;;;11.57;2.92;;;;;;;11.75;76.17;98934.72;6018621;23;20030;-89
2024/03/25 10:04:15;;;;;;;13.52;2.97;;;;;;;11.75;71.96;98934.72;6018669;23;20537;-90
2024/03/25 10:06:41;;;;;;;10.88;2.58;;;;;;;11.86;77.23;98928.66;6042513;23;20023;-89
2024/03/25 10:09:13;;;;;;;11.80;2.55;;;;;;;11.91;72.20;98928.28;6018691;23;20027;-89
2024/03/25 10:11:39;;;;;;;9.90;2.13;;;;;;;11.99;75.45;98924.09;6020719;23;20022;-89
2024/03/25 10:14:10;;;;;;;13.50;2.63;;;;;;;12.01;71.51;98925.78;6020465;23;20259;-89
2024/03/25 10:16:36;;;;;;;10.57;2.83;;;;;;;12.05;73.24;98925.47;6044292;23;20023;-90
2024/03/25 10:19:01;;;;;;;13.95;3.20;;;;;;;12.04;71.84;98933.47;6044184;23;20399;-89
2024/03/25 10:24:45;;;;;;;7.75;2.13;;;;;;;11.88;68.73;98924.06;6039221;23;20023;-89
2024/03/25 10:27:22;;;;;;;9.45;2.65;;;;;;;11.83;69.29;98937.63;6015894;23;20019;-89
2024/03/25 10:29:55;;;;;;;11.93;2.13;;;;;;;11.79;69.67;98924.78;6039576;23;20480;-89
2024/03/25 10:32:24;;;;;;;13.65;2.83;;;;;;;11.79;72.54;98933.53;6015946;23;20027;-89
2024/03/25 10:35:00;;;;;;;11.52;2.63;;;;;;;11.73;69.25;98932.19;6039296;23;20469;-89
2024/03/25 10:37:34;;;;;;;11.10;2.80;;;;;;;11.75;69.62;98932.09;6015536;23;20455;-89
2024/03/25 10:40:01;;;;;;;13.15;2.30;;;;;;;11.80;73.31;98927.31;6015715;23;20023;-90
2024/03/25 10:42:26;;;;;;;12.38;3.42;;;;;;;11.85;72.25;98927.78;6015379;23;20031;-89
2024/03/25 10:45:09;;;;;;;11.52;2.75;;;;;;;11.85;63.50;98917.25;6015295;23;20027;-90
2024/03/25 10:47:35;;;;;;;9.88;2.38;;;;;;;11.91;70.49;98920.38;6039188;23;20024;-89
2024/03/25 10:50:09;;;;;;;8.90;2.50;;;;;;;11.90;66.64;98921.31;6039146;23;20031;-90
2024/03/25 10:52:37;;;;;;;10.05;2.03;;;;;;;11.90;68.62;98924.81;6015190;23;20027;-89
2024/03/25 10:55:03;;;;;;;8.30;2.60;;;;;;;11.90;68.90;98914.28;6015385;23;20079;-89
2024/03/25 10:57:31;;;;;;;11.52;2.15;;;;;;;11.95;71.30;98912.13;6015334;23;20019;-89
2024/03/25 10:59:58;;;;;;;11.60;2.30;;;;;;;12.06;72.19;98910.47;6039087;23;20023;-89
2024/03/25 11:02:24;;;;;;;11.70;2.65;;;;;;;12.22;73.24;98918.03;6015466;23;20023;-89
2024/03/25 11:04:56;;;;;;;9.00;2.63;;;;;;;12.41;71.57;98906.88;6015084;23;20027;-89
2024/03/25 11:07:42;;;;;;;12.90;2.72;;;;;;;12.58;67.07;98902.94;6039480;23;20042;-89
2024/03/25 11:10:09;;;;;;;14.07;2.97;;;;;;;12.75;71.73;98906.03;6015777;23;20023;-89
2024/03/25 11:12:40;;;;;;;10.32;2.70;;;;;;;12.84;69.38;98905.28;6038824;23;20023;-89
2024/03/25 11:15:07;;;;;;;11.10;2.88;;;;;;;12.92;69.95;98904.66;6015249;23;20047;-89
2024/03/25 11:17:49;;;;;;;7.00;2.35;;;;;;;12.94;65.64;98901.91;6014998;23;20023;-89
2024/03/25 11:20:18;;;;;;;11.05;2.45;;;;;;;12.99;66.84;98899.72;6015183;23;20027;-89
2024/03/25 11:22:51;;;;;;;9.40;2.95;;;;;;;12.99;66.07;98897.09;6017413;23;20034;-89
2024/03/25 11:25:17;;;;;;;14.63;3.10;;;;;;;13.00;68.03;98901.41;6020075;23;20031;-89
2024/03/25 11:27:44;;;;;;;16.75;3.17;;;;;;;12.98;67.56;98900.69;6043727;23;20027;-89
2024/03/25 11:30:41;;;;;;;12.05;2.50;;;;;;;12.87;59.43;98897.09;6019827;23;20026;-89
2024/03/25 11:33:07;;;;;;;8.40;2.58;;;;;;;12.95;69.55;98885.09;6019765;23;20018;-89
2024/03/25 11:35:39;;;;;;;8.77;2.45;;;;;;;12.99;66.77;98884.72;6019915;23;20022;-90
2024/03/25 11:38:05;;;;;;;;;;;;;;;13.10;66.75;98886.50;6020474;23;20023;-89
2024/03/25 11:40:31;;;;;;;9.52;2.20;;;;;;;13.29;70.11;98890.25;6043480;23;20344;-89
2024/03/25 11:42:59;;;;;;;9.15;2.15;;;;;;;13.34;67.94;98874.84;6043249;23;20153;-89
2024/03/25 11:45:25;;;;;;;8.48;2.53;;;;;;;13.42;69.58;98875.06;6019797;23;20034;-91
2024/03/25 11:50:57;;;;;;;6.07;1.75;;;;;;;13.52;68.36;98863.75;6043386;23;20474;-89
2024/03/25 11:53:23;;;;;;;9.48;2.60;;;;;;;13.53;67.79;98868.06;6019111;23;20023;-89
2024/03/25 11:55:55;;;;;;;9.05;2.35;;;;;;;13.48;64.19;98864.97;6019210;23;20029;-89
2024/03/25 11:58:21;;;;;;;8.02;2.03;;;;;;;13.48;67.72;98863.16;6019258;23;20027;-89
2024/03/25 12:01:00;;;;;;;6.57;1.75;;;;;;;13.40;64.32;98862.94;6019278;23;20090;-89
2024/03/25 12:03:26;;;;;;;10.82;2.45;;;;;;;13.41;67.40;98851.38;6019645;23;20029;-87
2024/03/25 12:06:06;;;;;;;8.80;2.20;;;;;;;13.34;62.88;98853.69;6042988;23;20023;-90
2024/03/25 12:08:36;;;;;;;11.52;2.83;;;;;;;13.34;66.38;98848.41;6019354;23;20026;-89
2024/03/25 12:11:30;;;;;;;7.20;1.98;;;;;;;13.26;61.51;98853.50;6019492;23;20529;-89
2024/03/25 12:13:56;;;;;;;14.75;2.67;;;;;;;13.24;65.57;98845.69;6019196;23;20019;-89
2024/03/25 12:16:23;;;;;;;8.23;2.00;;;;;;;13.20;66.43;98841.63;6042970;23;20026;-89
2024/03/25 12:19:09;;;;;;;13.50;2.78;;;;;;;13.12;62.21;98837.00;6019226;23;20023;-90
2024/03/25 12:21:34;;;;;;;7.50;2.05;;;;;;;13.19;67.57;98833.84;6019401;23;20019;-89
2024/03/25 12:24:00;;;;;;;7.10;1.80;;;;;;;13.23;67.07;98832.63;6014413;23;20477;-90
2024/03/25 12:26:59;;;;;;;15.27;3.30;;;;;;;13.24;62.22;98829.84;6019247;23;20030;-89
2024/03/25 12:29:25;;;;;;;10.52;2.30;;;;;;;13.41;68.95;98830.25;6019236;23;20031;-90
2024/03/25 12:32:09;;;;;;;10.48;2.40;;;;;;;13.60;60.69;98818.97;6019067;23;20027;-90
2024/03/25 12:34:35;;;;;;;6.38;2.03;;;;;;;13.94;68.90;98812.59;6019011;23;20362;-89
2024/03/25 12:37:04;;;;;;;13.13;2.60;;;;;;;14.17;62.02;98810.59;6042841;23;20026;-89
2024/03/25 16:45:11;;;;;;;6.70;1.58;;;;;;;14.28;52.62;98570.63;6095031;23;20069;-87
2024/03/25 16:47:37;;;;;;;7.30;1.60;;;;;;;14.14;52.83;98559.47;6045898;23;20023;-87
2024/03/25 16:50:06;;;;;;;7.63;1.90;;;;;;;14.01;50.96;98565.03;6046333;23;20359;-87
2024/03/25 16:52:38;;;;;;;9.38;2.08;;;;;;;13.91;50.87;98557.09;6045787;23;20027;-87
2024/03/25 16:55:10;;;;;;;5.60;1.48;;;;;;;13.81;52.36;98556.28;6045671;23;20022;-87
2024/03/25 16:57:44;;;;;;;6.15;1.45;;;;;;;13.70;51.21;98554.59;6070411;23;20027;-89
2024/03/25 17:00:11;;;;;;;7.38;2.28;;;;;;;13.65;53.52;98551.53;6070300;23;20029;-87
2024/03/25 17:02:37;;;;;;;7.03;1.70;;;;;;;13.56;53.69;98550.53;6045437;23;20026;-87
